Latest Weather Observations for St Kilda Harbour RMYS

IDV60801

Issued at 10:22 am EDT Thursday 23 January 2020 (issued every 10 minutes, with the page automatically refreshed every 10 minutes)

About weather observations | Map of weather stations | Latest weather observations for VIC | Other Formats
Station Details ID: 086220 Name: ST KILDA HARBOUR - RMYS Lat: -37.86 Lon: 144.96 Height: 6.4 m
Data from the previous 72 hours. | See also: Recent months at St Kilda Harbour RMYS
Date/Time
EDT
Temp
°C
App
Temp
°C
Dew
Point
°C
Rel
Hum
%
Delta-T
°C
Wind Press
QNH
hPa
Press
MSL
hPa
Rain since
9am
mm
Dir  Spd
km/h
Gust
km/h
Spd
kts
Gust
kts
23/10:00am - - - - - NNW 20 28 11 15 - - -
23/09:30am - - - - - NNW 15 19 8 10 - - -
23/09:00am - - - - - NNW 11 17 6 9 - - -
23/08:30am - - - - - NNW 15 20 8 11 - - -
23/08:00am - - - - - NNW 17 24 9 13 - - -
23/07:30am - - - - - NNE 15 20 8 11 - - -
23/07:00am - - - - - NNE 17 24 9 13 - - -
23/06:30am - - - - - NNE 17 24 9 13 - - -
23/06:00am - - - - - NNE 17 24 9 13 - - -
23/05:30am - - - - - NE 13 20 7 11 - - -
23/05:00am - - - - - NE 9 13 5 7 - - -
23/04:30am - - - - - W 17 20 9 11 - - -
23/04:00am - - - - - W 17 22 9 12 - - -
23/03:30am - - - - - WSW 26 32 14 17 - - -
23/03:00am - - - - - SW 30 37 16 20 - - -
23/02:30am - - - - - SW 26 32 14 17 - - -
23/02:00am - - - - - SSW 15 22 8 12 - - -
23/01:30am - - - - - SSW 19 24 10 13 - - -
23/01:00am - - - - - SSW 19 26 10 14 - - -
23/12:30am - - - - - SSE 15 20 8 11 - - -
23/12:00am - - - - - SE 20 26 11 14 - - -
 
Date/Time
EDT
Temp
°C
App
Temp
°C
Dew
Point
°C
Rel
Hum
%
Delta-T
°C
Wind Press
QNH
hPa
Press
MSL
hPa
Rain since
9am
mm
Dir  Spd
km/h
Gust
km/h
Spd
kts
Gust
kts
22/11:30pm - - - - - ESE 15 20 8 11 - - -
22/11:00pm - - - - - SSW 26 33 14 18 - - -
22/10:30pm - - - - - S 35 41 19 22 - - -
22/10:00pm - - - - - S 41 48 22 26 - - -
22/09:30pm - - - - - S 39 46 21 25 - - -
22/09:00pm - - - - - S 41 48 22 26 - - -
22/08:30pm - - - - - SSW 54 65 29 35 - - -
22/08:00pm - - - - - SSW 56 69 30 37 - - -
22/07:49pm - - - - - SW 48 70 26 38 - - -
22/07:44pm - - - - - WNW 32 59 17 32 - - -
22/07:43pm - - - - - WNW 30 46 16 25 - - -
22/07:41pm - - - - - NW 28 46 15 25 - - -
22/07:30pm - - - - - N 28 48 15 26 - - -
22/07:00pm - - - - - N 41 69 22 37 - - -
22/06:39pm - - - - - N 41 72 22 39 - - -
22/06:33pm - - - - - N 33 54 18 29 - - -
22/06:30pm - - - - - N 33 48 18 26 - - -
22/06:01pm - - - - - NNW 46 67 25 36 - - -
22/06:00pm - - - - - NNW 44 61 24 33 - - -
22/05:32pm - - - - - NNW 41 67 22 36 - - -
22/05:30pm - - - - - N 37 67 20 36 - - -
22/05:08pm - - - - - N 28 54 15 29 - - -
22/05:00pm - - - - - N 32 48 17 26 - - -
22/04:30pm - - - - - N 39 61 21 33 - - -
22/04:00pm - - - - - N 43 69 23 37 - - -
22/03:30pm - - - - - NNW 44 70 24 38 - - -
22/03:00pm - - - - - NNW 41 65 22 35 - - -
22/02:30pm - - - - - N 41 67 22 36 - - -
22/02:00pm - - - - - N 43 70 23 38 - - -
22/01:43pm - - - - - N 41 74 22 40 - - -
22/01:35pm - - - - - N 28 50 15 27 - - -
22/01:30pm - - - - - N 30 41 16 22 - - -
22/01:02pm - - - - - N 39 65 21 35 - - -
22/01:00pm - - - - - N 39 57 21 31 - - -
22/12:30pm - - - - - N 35 59 19 32 - - -
22/12:00pm - - - - - N 39 69 21 37 - - -
22/11:32am - - - - - N 37 57 20 31 - - -
22/11:30am - - - - - N 37 54 20 29 - - -
22/11:00am - - - - - NNE 44 67 24 36 - - -
22/10:33am - - - - - N 41 65 22 35 - - -
22/10:30am - - - - - N 41 57 22 31 - - -
22/10:00am - - - - - N 35 59 19 32 - - -
22/09:30am - - - - - NNE 32 50 17 27 - - -
22/09:01am - - - - - NNE 32 54 17 29 - - -
22/09:00am - - - - - NNE 30 48 16 26 - - -
22/08:53am - - - - - NNE 32 50 17 27 - - -
22/08:30am - - - - - N 28 43 15 23 - - -
22/08:00am - - - - - NNE 32 52 17 28 - - -
22/07:31am - - - - - NNE 32 52 17 28 - - -
22/07:30am - - - - - NNE 32 46 17 25 - - -
22/07:00am - - - - - NNE 26 35 14 19 - - -
22/06:30am - - - - - NNE 19 26 10 14 - - -
22/06:00am - - - - - NNE 15 20 8 11 - - -
22/05:30am - - - - - NNE 15 20 8 11 - - -
22/05:00am - - - - - NNE 13 19 7 10 - - -
22/04:30am - - - - - NNE 15 22 8 12 - - -
22/04:00am - - - - - NNE 17 22 9 12 - - -
22/03:30am - - - - - NE 15 20 8 11 - - -
22/03:00am - - - - - NNE 11 17 6 9 - - -
22/02:30am - - - - - NNE 9 13 5 7 - - -
22/02:00am - - - - - NNE 6 9 3 5 - - -
22/01:30am - - - - - NE 6 9 3 5 - - -
22/01:00am - - - - - ENE 4 6 2 3 - - -
22/12:30am - - - - - ENE 6 9 3 5 - - -
22/12:00am - - - - - ENE 6 9 3 5 - - -
 
Date/Time
EDT
Temp
°C
App
Temp
°C
Dew
Point
°C
Rel
Hum
%
Delta-T
°C
Wind Press
QNH
hPa
Press
MSL
hPa
Rain since
9am
mm
Dir  Spd
km/h
Gust
km/h
Spd
kts
Gust
kts
21/11:30pm - - - - - E 6 13 3 7 - - -
21/11:00pm - - - - - SE 11 13 6 7 - - -
21/10:30pm - - - - - ESE 9 13 5 7 - - -
21/10:00pm - - - - - SE 11 17 6 9 - - -
21/09:30pm - - - - - SE 13 20 7 11 - - -
21/09:00pm - - - - - ESE 19 24 10 13 - - -
21/08:30pm - - - - - SSE 19 24 10 13 - - -
21/08:00pm - - - - - S 28 35 15 19 - - -
21/07:30pm - - - - - S 30 35 16 19 - - -
21/07:00pm - - - - - S 30 35 16 19 - - -
21/06:30pm - - - - - S 28 33 15 18 - - -
21/06:00pm - - - - - S 28 32 15 17 - - -
21/05:30pm - - - - - S 26 32 14 17 - - -
21/05:00pm - - - - - S 28 32 15 17 - - -
21/04:30pm - - - - - S 28 32 15 17 - - -
21/04:00pm - - - - - S 26 30 14 16 - - -
21/03:30pm - - - - - S 22 26 12 14 - - -
21/03:00pm - - - - - S 19 22 10 12 - - -
21/02:30pm - - - - - S 19 22 10 12 - - -
21/02:00pm - - - - - S 15 19 8 10 - - -
21/01:30pm - - - - - S 17 20 9 11 - - -
21/01:00pm - - - - - S 13 17 7 9 - - -
21/12:30pm - - - - - S 7 13 4 7 - - -
21/12:00pm - - - - - SSW 9 15 5 8 - - -
21/11:30am - - - - - SSW 11 19 6 10 - - -
21/11:00am - - - - - WSW 9 13 5 7 - - -
21/10:30am - - - - - WSW 11 19 6 10 - - -
21/10:00am - - - - - WSW 13 19 7 10 - - -
21/09:30am - - - - - WSW 22 28 12 15 - - -
21/09:00am - - - - - W 20 24 11 13 - - -
21/08:30am - - - - - W 19 22 10 12 - - -
21/08:00am - - - - - W 26 28 14 15 - - -
21/07:30am - - - - - W 22 30 12 16 - - -
21/07:00am - - - - - W 28 37 15 20 - - -
21/06:30am - - - - - W 28 35 15 19 - - -
21/06:00am - - - - - WSW 26 35 14 19 - - -
21/05:30am - - - - - WSW 28 35 15 19 - - -
21/05:00am - - - - - SW 24 30 13 16 - - -
21/04:30am - - - - - SW 32 37 17 20 - - -
21/04:00am - - - - - SW 39 44 21 24 - - -
21/03:30am - - - - - SW 33 39 18 21 - - -
21/03:00am - - - - - SW 39 46 21 25 - - -
21/02:30am - - - - - SW 39 44 21 24 - - -
21/02:00am - - - - - SW 39 46 21 25 - - -
21/01:30am - - - - - SW 39 50 21 27 - - -
21/01:00am - - - - - SW 43 50 23 27 - - -
21/12:30am - - - - - SW 43 50 23 27 - - -
21/12:00am - - - - - SW 43 50 23 27 - - -
 
Date/Time
EDT
Temp
°C
App
Temp
°C
Dew
Point
°C
Rel
Hum
%
Delta-T
°C
Wind Press
QNH
hPa
Press
MSL
hPa
Rain since
9am
mm
Dir  Spd
km/h
Gust
km/h
Spd
kts
Gust
kts
20/11:30pm - - - - - SW 43 52 23 28 - - -
20/11:00pm - - - - - SW 46 54 25 29 - - -
20/10:30pm - - - - - SSW 44 50 24 27 - - -
20/10:00pm - - - - - SW 43 50 23 27 - - -
20/09:30pm - - - - - SSW 43 52 23 28 - - -
20/09:00pm - - - - - SW 46 56 25 30 - - -
20/08:30pm - - - - - SSW 35 46 19 25 - - -
20/08:00pm - - - - - SSW 33 39 18 21 - - -
20/07:30pm - - - - - S 33 39 18 21 - - -
20/07:00pm - - - - - SSW 39 44 21 24 - - -
20/06:30pm - - - - - S 39 46 21 25 - - -
20/06:00pm - - - - - S 37 43 20 23 - - -
20/05:30pm - - - - - S 37 44 20 24 - - -
20/05:00pm - - - - - S 41 46 22 25 - - -
20/04:30pm - - - - - S 39 46 21 25 - - -
20/04:00pm - - - - - S 43 50 23 27 - - -
20/03:30pm - - - - - S 39 48 21 26 - - -
20/03:00pm - - - - - S 39 46 21 25 - - -
20/02:30pm - - - - - S 44 52 24 28 - - -
20/02:00pm - - - - - S 44 50 24 27 - - -
20/01:30pm - - - - - S 37 43 20 23 - - -
20/01:00pm - - - - - S 41 48 22 26 - - -
20/12:30pm - - - - - SSW 35 41 19 22 - - -
20/12:00pm - - - - - SSW 28 32 15 17 - - -
20/11:30am - - - - - SSW 28 33 15 18 - - -
20/11:00am - - - - - S 24 28 13 15 - - -
20/10:30am - - - - - S 26 30 14 16 - - -

Other formats

Comma delimited format used in spreadsheet applications
http://www.bom.gov.au/fwo/IDV60801/IDV60801.95864.axf

JavaScript Object Notation format (JSON) in row-major order
http://www.bom.gov.au/fwo/IDV60801/IDV60801.95864.json

Data quality

Most of these data are generated automatically and are frequently updated. Quality checks on data are not normally performed. It is possible for incorrect values to appear. Refer to information at About Latest Weather Observations and please check the disclaimer before using these data.